Time;durP1;ratioP1;P1;durP2;ratioP2;P2;SDS_P1;SDS_P2;PMS_P1;PMS_P2;Temp;Humidity;BMP_temperature;BMP_pressure;BME280_temperature;BME280_humidity;BME280_pressure;Samples;Min_cycle;Max_cycle;Signal;HPM_P1;HPM_P2
2022/02/25 00:02:01;;;;;;;7.23;2.90;;;;;;;;;;6208518;28;20253;-68
2022/02/25 00:05:22;;;;;;;8.63;2.93;;;;;;;;;;6205105;28;20320;-70
2022/02/25 00:08:42;;;;;;;12.30;4.70;;;;;;;;;;6205197;28;20225;-68
2022/02/25 00:12:05;;;;;;;10.40;2.87;;;;;;;;;;6204509;28;20237;-68
2022/02/25 00:15:25;;;;;;;4.50;2.17;;;;;;;;;;6206232;28;20240;-69
2022/02/25 00:18:46;;;;;;;7.47;2.60;;;;;;;;;;6200734;28;20237;-67
2022/02/25 00:22:06;;;;;;;6.60;2.90;;;;;;;;;;6209755;28;20225;-66
2022/02/25 00:25:27;;;;;;;9.60;4.93;;;;;;;;;;6208413;28;20343;-67
2022/02/25 00:28:49;;;;;;;8.93;3.13;;;;;;;;;;6211689;28;20225;-67
2022/02/25 00:32:10;;;;;;;10.10;3.83;;;;;;;;;;6208752;28;20228;-67
2022/02/25 00:35:30;;;;;;;7.00;3.80;;;;;;;;;;6217270;28;20324;-66
2022/02/25 00:38:51;;;;;;;9.83;3.60;;;;;;;;;;6212803;28;20256;-67
2022/02/25 00:42:13;;;;;;;10.03;3.13;;;;;;;;;;6210142;28;20232;-67
2022/02/25 00:45:34;;;;;;;9.93;4.37;;;;;;;;;;6209210;28;20233;-67
2022/02/25 00:48:55;;;;;;;11.07;3.60;;;;;;;;;;6212852;28;22290;-66
2022/02/25 00:52:16;;;;;;;9.33;4.00;;;;;;;;;;6207331;28;20301;-67
2022/02/25 00:55:36;;;;;;;13.27;3.03;;;;;;;;;;6197464;28;20237;-67
2022/02/25 00:58:57;;;;;;;9.03;3.27;;;;;;;;;;6203566;28;20236;-68
2022/02/25 01:02:19;;;;;;;10.03;4.33;;;;;;;;;;6203569;28;20972;-67
2022/02/25 01:05:39;;;;;;;8.57;4.77;;;;;;;;;;6205936;28;20647;-67
2022/02/25 01:09:00;;;;;;;10.23;3.50;;;;;;;;;;6206690;28;20240;-67
2022/02/25 01:12:21;;;;;;;12.23;3.37;;;;;;;;;;6204189;28;20233;-67
2022/02/25 01:15:42;;;;;;;7.53;4.20;;;;;;;;;;6194996;28;20875;-67
2022/02/25 01:19:03;;;;;;;10.20;3.30;;;;;;;;;;6209139;28;20233;-68
2022/02/25 01:22:24;;;;;;;8.53;2.97;;;;;;;;;;6212445;28;20225;-67
2022/02/25 01:25:44;;;;;;;8.93;3.27;;;;;;;;;;6211076;28;20257;-68
2022/02/25 01:29:05;;;;;;;10.07;2.70;;;;;;;;;;6207793;28;20228;-68
2022/02/25 01:32:26;;;;;;;6.87;3.33;;;;;;;;;;6207090;28;20234;-67
2022/02/25 01:35:48;;;;;;;13.33;3.63;;;;;;;;;;6214227;28;20233;-67
2022/02/25 01:39:08;;;;;;;8.03;3.23;;;;;;;;;;6212497;28;20221;-67
2022/02/25 01:42:29;;;;;;;11.20;2.93;;;;;;;;;;6209081;28;20237;-68
2022/02/25 01:45:49;;;;;;;10.33;3.87;;;;;;;;;;6211231;28;20229;-67
2022/02/25 01:49:10;;;;;;;12.00;2.93;;;;;;;;;;6213617;28;20618;-67
2022/02/25 01:52:32;;;;;;;7.23;3.20;;;;;;;;;;6215777;28;20828;-67
2022/02/25 01:55:53;;;;;;;9.60;3.73;;;;;;;;;;6210121;28;20610;-67
2022/02/25 01:59:13;;;;;;;10.87;2.50;;;;;;;;;;6217528;28;20225;-67
2022/02/25 02:02:34;;;;;;;8.37;3.50;;;;;;;;;;6212701;28;20331;-67
2022/02/25 02:05:54;;;;;;;4.60;2.00;;;;;;;;;;6214805;28;20229;-67
2022/02/25 02:09:17;;;;;;;11.03;3.60;;;;;;;;;;6216171;28;20233;-67
2022/02/25 02:12:37;;;;;;;10.47;2.20;;;;;;;;;;6212821;28;20224;-67
2022/02/25 02:15:58;;;;;;;6.93;3.20;;;;;;;;;;6212503;28;20232;-67
2022/02/25 02:19:19;;;;;;;6.87;2.87;;;;;;;;;;6212479;28;20228;-67
2022/02/25 02:22:41;;;;;;;6.33;1.80;;;;;;;;;;6214274;28;20221;-67
2022/02/25 02:26:01;;;;;;;5.80;2.37;;;;;;;;;;6217718;28;20224;-67
2022/02/25 02:29:22;;;;;;;31.60;4.53;;;;;;;;;;6212766;28;20241;-67
2022/02/25 02:32:42;;;;;;;5.50;2.47;;;;;;;;;;6210111;28;20232;-67
2022/02/25 02:36:04;;;;;;;6.93;2.73;;;;;;;;;;6215183;28;20639;-68
2022/02/25 02:39:26;;;;;;;5.10;2.10;;;;;;;;;;6212250;28;20225;-66
2022/02/25 02:42:46;;;;;;;4.03;2.47;;;;;;;;;;6214010;28;20229;-67
2022/02/25 02:46:07;;;;;;;4.03;1.80;;;;;;;;;;6213469;28;20237;-67
2022/02/25 02:49:28;;;;;;;5.67;3.23;;;;;;;;;;6207354;28;20320;-67
2022/02/25 02:52:49;;;;;;;8.00;3.17;;;;;;;;;;6211233;28;20229;-66
2022/02/25 02:56:11;;;;;;;9.17;2.93;;;;;;;;;;6210227;28;20229;-66
2022/02/25 02:59:31;;;;;;;8.57;3.33;;;;;;;;;;6212165;28;20237;-68
2022/02/25 03:02:52;;;;;;;3.80;2.27;;;;;;;;;;6208383;28;20804;-67
2022/02/25 03:06:13;;;;;;;4.57;2.40;;;;;;;;;;6216531;28;20237;-67
2022/02/25 03:09:33;;;;;;;11.20;3.67;;;;;;;;;;6222989;28;20316;-67
2022/02/25 03:12:55;;;;;;;7.13;3.03;;;;;;;;;;6211047;28;20653;-67
2022/02/25 03:16:17;;;;;;;9.23;2.77;;;;;;;;;;6214887;28;20216;-68
2022/02/25 03:19:38;;;;;;;5.83;3.00;;;;;;;;;;6212664;28;20229;-68
2022/02/25 03:23:00;;;;;;;6.67;3.03;;;;;;;;;;6212166;28;20252;-67
2022/02/25 03:26:20;;;;;;;6.40;3.77;;;;;;;;;;6209245;28;20241;-67
2022/02/25 03:29:42;;;;;;;13.53;3.53;;;;;;;;;;6210899;28;20241;-68
2022/02/25 03:33:03;;;;;;;6.77;2.70;;;;;;;;;;6214369;28;20233;-67
2022/02/25 03:36:24;;;;;;;7.53;3.07;;;;;;;;;;6212050;28;20256;-68
2022/02/25 03:39:44;;;;;;;7.90;2.57;;;;;;;;;;6210131;28;20233;-68
2022/02/25 03:43:05;;;;;;;9.67;3.57;;;;;;;;;;6206977;28;20241;-68
2022/02/25 03:46:27;;;;;;;6.10;2.43;;;;;;;;;;6212531;28;20228;-69
2022/02/25 03:49:47;;;;;;;4.30;2.77;;;;;;;;;;6212379;28;20232;-68
2022/02/25 03:53:08;;;;;;;5.73;2.83;;;;;;;;;;6214424;28;20220;-68
2022/02/25 03:56:28;;;;;;;8.17;3.30;;;;;;;;;;6210997;28;20237;-67
2022/02/25 03:59:49;;;;;;;6.83;3.07;;;;;;;;;;6212604;28;20217;-67
2022/02/25 04:03:10;;;;;;;7.93;3.33;;;;;;;;;;6212194;28;20228;-67
2022/02/25 04:06:33;;;;;;;10.90;3.03;;;;;;;;;;6214348;28;20241;-67
2022/02/25 04:09:53;;;;;;;11.20;2.83;;;;;;;;;;6210602;28;20220;-67
2022/02/25 04:13:14;;;;;;;9.53;3.10;;;;;;;;;;6201461;28;20232;-67
2022/02/25 04:16:34;;;;;;;9.40;3.57;;;;;;;;;;6211871;28;20332;-67
2022/02/25 04:19:57;;;;;;;2.93;1.77;;;;;;;;;;6215958;28;20233;-66
2022/02/25 04:23:18;;;;;;;9.50;2.50;;;;;;;;;;6222329;28;20228;-67
2022/02/25 04:26:38;;;;;;;11.93;4.63;;;;;;;;;;6211527;28;20232;-67
2022/02/25 04:29:59;;;;;;;7.57;2.83;;;;;;;;;;6215679;28;20220;-67
2022/02/25 04:33:20;;;;;;;6.33;2.83;;;;;;;;;;6210517;28;20224;-67
2022/02/25 04:36:41;;;;;;;5.03;2.40;;;;;;;;;;6208867;28;20241;-66
2022/02/25 04:40:03;;;;;;;8.90;2.63;;;;;;;;;;6205525;28;20293;-67
2022/02/25 04:43:23;;;;;;;10.20;3.20;;;;;;;;;;6210966;28;20237;-68
2022/02/25 04:46:43;;;;;;;9.90;3.00;;;;;;;;;;6210925;28;20249;-68
2022/02/25 04:50:04;;;;;;;5.67;2.47;;;;;;;;;;6211731;28;20287;-67
2022/02/25 04:53:26;;;;;;;8.50;4.03;;;;;;;;;;6216340;28;20689;-68
2022/02/25 04:56:47;;;;;;;8.33;3.00;;;;;;;;;;6211540;28;20260;-68
2022/02/25 05:00:10;;;;;;;7.97;3.70;;;;;;;;;;6211705;28;20303;-68
2022/02/25 05:03:32;;;;;;;12.73;3.23;;;;;;;;;;6212071;28;20229;-67
2022/02/25 05:06:53;;;;;;;4.43;2.07;;;;;;;;;;6211252;28;20316;-68
2022/02/25 05:10:15;;;;;;;5.17;1.97;;;;;;;;;;6217690;28;20224;-68
2022/02/25 05:13:36;;;;;;;5.20;3.03;;;;;;;;;;6208784;28;20525;-68
2022/02/25 05:20:34;;;;;;;7.10;3.50;;;;;;;;;;6214343;28;20312;-69
2022/02/25 05:23:55;;;;;;;5.57;2.47;;;;;;;;;;6209310;28;20224;-68
2022/02/25 05:27:17;;;;;;;7.97;3.27;;;;;;;;;;6206306;28;20237;-67
2022/02/25 05:30:40;;;;;;;7.20;2.70;;;;;;;;;;6206123;28;20221;-67
2022/02/25 05:34:00;;;;;;;7.67;3.10;;;;;;;;;;6210543;28;20230;-66
2022/02/25 05:37:21;;;;;;;4.97;2.90;;;;;;;;;;6212056;28;20225;-69
2022/02/25 05:40:41;;;;;;;10.73;3.00;;;;;;;;;;6211399;28;20328;-69
2022/02/25 05:44:04;;;;;;;6.17;2.80;;;;;;;;;;6210574;28;20233;-67
2022/02/25 05:47:24;;;;;;;6.30;2.37;;;;;;;;;;6214534;28;20233;-68
2022/02/25 05:50:45;;;;;;;12.10;2.80;;;;;;;;;;6214884;28;20224;-67
2022/02/25 05:54:05;;;;;;;7.03;3.17;;;;;;;;;;6215057;28;20243;-68
2022/02/25 05:57:26;;;;;;;5.97;2.83;;;;;;;;;;6211592;28;20236;-68
2022/02/25 06:00:48;;;;;;;6.50;2.23;;;;;;;;;;6210073;28;20236;-67
2022/02/25 06:04:09;;;;;;;11.07;3.33;;;;;;;;;;6212186;28;20232;-65
2022/02/25 06:07:30;;;;;;;7.60;2.50;;;;;;;;;;6213863;28;20232;-67
2022/02/25 06:10:50;;;;;;;11.83;4.17;;;;;;;;;;6209518;28;20233;-67
2022/02/25 06:14:11;;;;;;;5.97;2.73;;;;;;;;;;6207647;28;20225;-67
2022/02/25 06:17:33;;;;;;;11.93;3.30;;;;;;;;;;6209483;28;20712;-67
2022/02/25 06:20:54;;;;;;;6.27;2.63;;;;;;;;;;6208554;28;20237;-68
2022/02/25 06:24:15;;;;;;;6.77;2.67;;;;;;;;;;6207387;28;20255;-68
2022/02/25 06:27:37;;;;;;;6.10;2.43;;;;;;;;;;6211013;28;20232;-67
2022/02/25 06:30:57;;;;;;;8.40;4.73;;;;;;;;;;6207474;28;20579;-66
2022/02/25 06:34:19;;;;;;;8.10;3.33;;;;;;;;;;6211371;28;20225;-67
2022/02/25 06:37:39;;;;;;;6.73;2.90;;;;;;;;;;6211739;28;20510;-67
2022/02/25 06:41:00;;;;;;;9.80;4.30;;;;;;;;;;6211758;28;20240;-67
2022/02/25 06:44:20;;;;;;;7.73;4.87;;;;;;;;;;6217033;28;20225;-69
2022/02/25 06:47:41;;;;;;;12.93;3.80;;;;;;;;;;6217934;28;20233;-68
2022/02/25 06:51:03;;;;;;;11.87;3.50;;;;;;;;;;6213286;28;20233;-69
2022/02/25 06:54:23;;;;;;;9.63;5.43;;;;;;;;;;6214789;28;20700;-69
2022/02/25 06:57:44;;;;;;;9.63;3.63;;;;;;;;;;6211074;28;20241;-68
2022/02/25 07:01:05;;;;;;;5.83;2.73;;;;;;;;;;6213157;28;20238;-68
2022/02/25 07:04:26;;;;;;;8.93;3.80;;;;;;;;;;6211976;28;20706;-68
2022/02/25 07:07:48;;;;;;;11.13;3.80;;;;;;;;;;6212474;28;20229;-68
2022/02/25 07:11:08;;;;;;;16.27;4.33;;;;;;;;;;6210567;28;20220;-68
2022/02/25 07:14:29;;;;;;;9.40;4.00;;;;;;;;;;6211080;28;20224;-68
2022/02/25 07:17:49;;;;;;;9.43;4.20;;;;;;;;;;6200943;28;20317;-69
2022/02/25 07:21:11;;;;;;;14.23;3.80;;;;;;;;;;6218559;28;20233;-68
2022/02/25 07:24:33;;;;;;;9.43;3.83;;;;;;;;;;6212443;28;20225;-67
2022/02/25 07:27:54;;;;;;;12.87;3.83;;;;;;;;;;6209052;28;20237;-67
2022/02/25 07:31:14;;;;;;;6.87;2.60;;;;;;;;;;6213649;28;20225;-67
2022/02/25 07:34:35;;;;;;;9.50;3.40;;;;;;;;;;6214800;28;20236;-68
2022/02/25 07:37:56;;;;;;;12.37;3.73;;;;;;;;;;6206515;28;20240;-68
2022/02/25 07:41:18;;;;;;;14.93;4.43;;;;;;;;;;6209095;28;20222;-68
2022/02/25 07:44:38;;;;;;;9.87;4.13;;;;;;;;;;6208257;28;20233;-68
2022/02/25 07:47:59;;;;;;;9.97;3.63;;;;;;;;;;6208702;28;20222;-68
2022/02/25 07:51:19;;;;;;;8.20;3.20;;;;;;;;;;6199007;28;20640;-66
2022/02/25 07:54:40;;;;;;;15.83;4.80;;;;;;;;;;6207286;28;20607;-69
2022/02/25 07:58:02;;;;;;;4.87;2.70;;;;;;;;;;6211252;28;20241;-70
2022/02/25 08:01:23;;;;;;;8.47;3.87;;;;;;;;;;6200099;28;20541;-70
2022/02/25 08:04:44;;;;;;;7.23;3.10;;;;;;;;;;6206817;28;20240;-70
2022/02/25 08:08:05;;;;;;;7.63;4.10;;;;;;;;;;6202726;28;20229;-70
2022/02/25 08:11:26;;;;;;;11.20;4.37;;;;;;;;;;6211282;28;20230;-70
2022/02/25 08:14:48;;;;;;;6.40;3.70;;;;;;;;;;6207822;28;20240;-69
2022/02/25 08:18:09;;;;;;;7.77;3.73;;;;;;;;;;6200294;28;20233;-70
2022/02/25 08:21:29;;;;;;;8.30;4.07;;;;;;;;;;6207042;28;20515;-72
2022/02/25 08:24:51;;;;;;;15.43;4.07;;;;;;;;;;6198386;28;22233;-69
2022/02/25 08:28:11;;;;;;;8.13;3.73;;;;;;;;;;6207146;28;20319;-68
2022/02/25 08:31:33;;;;;;;5.77;2.77;;;;;;;;;;6207543;28;20244;-70
2022/02/25 08:34:54;;;;;;;8.50;3.73;;;;;;;;;;6187717;28;20229;-71
2022/02/25 08:38:17;;;;;;;13.33;6.87;;;;;;;;;;6197961;28;20541;-71
2022/02/25 08:41:37;;;;;;;12.33;4.60;;;;;;;;;;6206534;28;20249;-71
2022/02/25 08:44:58;;;;;;;8.17;5.33;;;;;;;;;;6201789;28;20327;-71
2022/02/25 08:48:20;;;;;;;13.90;6.03;;;;;;;;;;6201683;28;20303;-71
2022/02/25 08:51:42;;;;;;;11.63;5.73;;;;;;;;;;6204272;28;20229;-72
2022/02/25 08:55:03;;;;;;;13.13;5.03;;;;;;;;;;6198662;28;20623;-72
2022/02/25 08:58:23;;;;;;;8.07;5.43;;;;;;;;;;6200780;28;20245;-71
2022/02/25 09:01:44;;;;;;;15.83;8.70;;;;;;;;;;6194416;28;20217;-70
2022/02/25 09:05:06;;;;;;;15.67;6.73;;;;;;;;;;6204582;28;20241;-72
2022/02/25 09:08:27;;;;;;;16.17;6.63;;;;;;;;;;6201911;28;20229;-71
2022/02/25 09:11:47;;;;;;;6.20;4.50;;;;;;;;;;6189859;28;20319;-70
2022/02/25 09:15:09;;;;;;;8.93;5.13;;;;;;;;;;6187260;28;20221;-71
2022/02/25 09:18:30;;;;;;;10.90;5.20;;;;;;;;;;6186280;28;20248;-72
2022/02/25 09:21:52;;;;;;;8.80;4.57;;;;;;;;;;6195332;28;21057;-70
2022/02/25 09:25:13;;;;;;;11.20;5.47;;;;;;;;;;6198575;28;20217;-70
2022/02/25 09:28:34;;;;;;;9.53;5.77;;;;;;;;;;6205041;28;20233;-71
2022/02/25 09:31:54;;;;;;;9.37;5.77;;;;;;;;;;6202744;28;20236;-71
2022/02/25 09:35:15;;;;;;;9.53;5.57;;;;;;;;;;6200336;28;20229;-71
2022/02/25 09:38:39;;;;;;;12.57;6.77;;;;;;;;;;6210399;28;20228;-71
2022/02/25 09:42:00;;;;;;;8.43;5.57;;;;;;;;;;6208286;28;20225;-72
2022/02/25 09:45:21;;;;;;;6.80;4.80;;;;;;;;;;6199951;28;20622;-71
2022/02/25 09:48:42;;;;;;;7.70;4.77;;;;;;;;;;6211930;28;20232;-71
2022/02/25 09:52:02;;;;;;;9.40;6.47;;;;;;;;;;6210462;28;20332;-70
2022/02/25 09:55:25;;;;;;;6.37;4.63;;;;;;;;;;6205513;28;20237;-72
2022/02/25 09:58:45;;;;;;;9.13;5.57;;;;;;;;;;6206391;28;20272;-72
2022/02/25 10:02:07;;;;;;;6.93;5.07;;;;;;;;;;6206974;28;20512;-71
2022/02/25 10:05:28;;;;;;;10.77;5.80;;;;;;;;;;6203758;28;20229;-72
2022/02/25 10:08:49;;;;;;;13.90;5.43;;;;;;;;;;6205736;28;20237;-72
2022/02/25 10:12:12;;;;;;;11.27;5.60;;;;;;;;;;6213515;28;20224;-69
2022/02/25 10:15:33;;;;;;;12.17;5.60;;;;;;;;;;6215655;28;20228;-70
2022/02/25 10:19:00;;;;;;;8.90;6.63;;;;;;;;;;6218297;28;20528;-71
2022/02/25 10:22:22;;;;;;;7.53;5.53;;;;;;;;;;6217857;28;20622;-69
2022/02/25 10:25:43;;;;;;;9.57;5.30;;;;;;;;;;6215132;28;20233;-71
2022/02/25 10:29:06;;;;;;;8.70;5.57;;;;;;;;;;6213891;28;20237;-72
2022/02/25 10:32:27;;;;;;;7.83;6.40;;;;;;;;;;6211696;28;20233;-74
2022/02/25 10:35:47;;;;;;;11.07;6.13;;;;;;;;;;6213892;28;20233;-74
2022/02/25 10:39:08;;;;;;;12.10;7.20;;;;;;;;;;6214115;28;20634;-72
2022/02/25 10:42:29;;;;;;;12.13;7.27;;;;;;;;;;6213074;28;20256;-72
2022/02/25 10:45:52;;;;;;;8.67;7.47;;;;;;;;;;6212344;28;20614;-71
2022/02/25 10:49:14;;;;;;;8.67;6.53;;;;;;;;;;6213764;28;20233;-71
2022/02/25 10:52:35;;;;;;;7.83;6.33;;;;;;;;;;6212232;28;20224;-73
2022/02/25 10:56:05;;;;;;;8.53;6.97;;;;;;;;;;6204317;28;20500;-73
2022/02/25 10:59:25;;;;;;;11.03;6.83;;;;;;;;;;6208485;28;20251;-71
2022/02/25 11:02:48;;;;;;;9.90;6.70;;;;;;;;;;6210420;28;20224;-71
2022/02/25 11:06:09;;;;;;;10.63;6.37;;;;;;;;;;6211210;28;20229;-71
2022/02/25 11:09:30;;;;;;;11.47;7.40;;;;;;;;;;6212243;28;20225;-72
2022/02/25 11:12:51;;;;;;;7.23;6.50;;;;;;;;;;6210364;28;20237;-71
2022/02/25 11:16:11;;;;;;;7.90;4.23;;;;;;;;;;6214663;28;20540;-71
2022/02/25 11:19:33;;;;;;;10.47;4.77;;;;;;;;;;6215760;28;20236;-72
2022/02/25 11:22:57;;;;;;;10.70;4.87;;;;;;;;;;6209956;28;20225;-71
2022/02/25 11:26:20;;;;;;;6.43;4.63;;;;;;;;;;6206776;28;20399;-71
2022/02/25 11:29:44;;;;;;;9.23;3.73;;;;;;;;;;6212347;28;20221;-73
2022/02/25 11:33:08;;;;;;;9.13;4.23;;;;;;;;;;6214738;28;20370;-72
2022/02/25 11:36:44;;;;;;;6.93;3.20;;;;;;;;;;6209817;28;20229;-72
2022/02/25 11:40:05;;;;;;;5.63;2.93;;;;;;;;;;6213709;28;20807;-73
2022/02/25 11:43:33;;;;;;;5.63;3.30;;;;;;;;;;6209844;28;20233;-73
2022/02/25 11:46:55;;;;;;;6.80;2.87;;;;;;;;;;6208341;28;20232;-73
2022/02/25 11:50:29;;;;;;;5.37;2.60;;;;;;;;;;6204316;28;20225;-73
2022/02/25 11:54:11;;;;;;;6.90;3.20;;;;;;;;;;6209442;28;20252;-73
2022/02/25 11:57:32;;;;;;;9.70;3.47;;;;;;;;;;6209105;28;20241;-72
2022/02/25 12:01:05;;;;;;;7.33;3.93;;;;;;;;;;6211732;28;20591;-72
2022/02/25 12:04:27;;;;;;;8.83;2.97;;;;;;;;;;6207875;28;20229;-72
2022/02/25 12:07:51;;;;;;;8.67;3.77;;;;;;;;;;6209914;28;20233;-69
2022/02/25 12:11:32;;;;;;;5.03;3.27;;;;;;;;;;6214884;28;20237;-72
2022/02/25 12:14:57;;;;;;;4.47;2.40;;;;;;;;;;6206304;28;20849;-71
2022/02/25 12:18:19;;;;;;;8.27;3.10;;;;;;;;;;6206651;28;20229;-75
2022/02/25 12:21:41;;;;;;;5.73;2.73;;;;;;;;;;6208538;28;20230;-74
2022/02/25 12:25:09;;;;;;;3.73;1.90;;;;;;;;;;6209134;28;20233;-71
2022/02/25 12:28:45;;;;;;;9.27;2.77;;;;;;;;;;6204209;28;20241;-72
2022/02/25 12:32:06;;;;;;;5.47;1.80;;;;;;;;;;6205874;28;20228;-76
2022/02/25 12:35:41;;;;;;;5.77;2.27;;;;;;;;;;6209150;28;20232;-73
2022/02/25 12:39:04;;;;;;;4.60;2.17;;;;;;;;;;6198901;28;20268;-72
2022/02/25 12:42:29;;;;;;;2.57;1.90;;;;;;;;;;6209469;28;20261;-73
2022/02/25 12:45:52;;;;;;;2.73;1.10;;;;;;;;;;6213260;28;20654;-71
2022/02/25 12:49:13;;;;;;;2.80;1.40;;;;;;;;;;6209358;28;20237;-72
2022/02/25 12:52:41;;;;;;;4.63;1.70;;;;;;;;;;6215801;28;20232;-71
2022/02/25 12:56:01;;;;;;;2.07;1.23;;;;;;;;;;6216680;28;20233;-71
2022/02/25 12:59:24;;;;;;;1.97;1.40;;;;;;;;;;6210048;28;20233;-72
2022/02/25 13:02:53;;;;;;;2.20;1.33;;;;;;;;;;6208410;28;20320;-71
2022/02/25 13:06:14;;;;;;;3.83;1.50;;;;;;;;;;6206724;28;20674;-71
2022/02/25 13:09:34;;;;;;;1.60;0.87;;;;;;;;;;6212241;28;20240;-70
2022/02/25 13:12:56;;;;;;;4.73;1.57;;;;;;;;;;6210015;28;20263;-71
2022/02/25 13:16:17;;;;;;;3.83;2.10;;;;;;;;;;6205307;28;20375;-71
2022/02/25 13:19:40;;;;;;;4.37;1.80;;;;;;;;;;6211372;28;20233;-70
2022/02/25 13:23:01;;;;;;;3.07;1.60;;;;;;;;;;6204919;28;20230;-71
2022/02/25 13:26:22;;;;;;;4.87;1.40;;;;;;;;;;6208097;28;20237;-71
2022/02/25 13:29:48;;;;;;;4.73;1.60;;;;;;;;;;6215381;28;20224;-70
2022/02/25 13:33:09;;;;;;;8.17;3.17;;;;;;;;;;6210691;28;20267;-71
2022/02/25 13:36:32;;;;;;;5.00;2.00;;;;;;;;;;6205552;28;20224;-71
2022/02/25 13:39:52;;;;;;;6.53;2.17;;;;;;;;;;6198405;28;20576;-72
2022/02/25 13:43:20;;;;;;;5.20;1.83;;;;;;;;;;6202606;28;20261;-70
2022/02/25 13:46:45;;;;;;;5.73;2.20;;;;;;;;;;6199354;28;20742;-71
2022/02/25 13:53:46;;;;;;;9.50;2.23;;;;;;;;;;6192549;28;20224;-71
2022/02/25 13:57:12;;;;;;;5.90;1.93;;;;;;;;;;6205587;28;20245;-70
2022/02/25 14:00:34;;;;;;;7.03;2.20;;;;;;;;;;6211834;28;20237;-72
2022/02/25 14:03:54;;;;;;;10.40;3.23;;;;;;;;;;6209544;28;20623;-71
2022/02/25 14:07:17;;;;;;;7.40;3.03;;;;;;;;;;6214066;28;20233;-70
2022/02/25 14:10:40;;;;;;;8.50;3.20;;;;;;;;;;6210984;28;20386;-71
2022/02/25 14:14:01;;;;;;;8.30;2.97;;;;;;;;;;6211576;28;20234;-72
2022/02/25 14:17:23;;;;;;;4.30;2.00;;;;;;;;;;6196835;28;20930;-71
2022/02/25 14:20:44;;;;;;;7.27;1.37;;;;;;;;;;6194909;28;20315;-71
2022/02/25 14:24:19;;;;;;;6.00;2.50;;;;;;;;;;6196103;28;20754;-72
2022/02/25 14:27:54;;;;;;;7.00;1.97;;;;;;;;;;6184364;28;20233;-72
2022/02/25 14:31:17;;;;;;;14.60;2.57;;;;;;;;;;6195311;28;20232;-70
2022/02/25 14:34:39;;;;;;;11.73;3.10;;;;;;;;;;6194619;28;21331;-71
2022/02/25 14:37:59;;;;;;;8.37;2.67;;;;;;;;;;6195596;28;20225;-71
2022/02/25 14:41:20;;;;;;;7.50;3.03;;;;;;;;;;6195970;28;20253;-71
2022/02/25 14:44:42;;;;;;;18.70;3.13;;;;;;;;;;6195015;28;20233;-70
2022/02/25 14:48:03;;;;;;;6.73;2.53;;;;;;;;;;6192519;28;20554;-71
2022/02/25 14:51:24;;;;;;;9.73;2.70;;;;;;;;;;6197790;28;20233;-71
2022/02/25 14:54:45;;;;;;;8.73;2.83;;;;;;;;;;6202016;28;20221;-72
2022/02/25 14:58:08;;;;;;;5.53;2.13;;;;;;;;;;6200854;28;20309;-71
2022/02/25 15:01:29;;;;;;;7.20;2.80;;;;;;;;;;6206942;28;20315;-70
2022/02/25 15:04:50;;;;;;;8.90;2.93;;;;;;;;;;6206105;28;20741;-71
2022/02/25 15:08:12;;;;;;;5.87;1.90;;;;;;;;;;6213252;28;20326;-71
2022/02/25 15:11:32;;;;;;;7.53;2.23;;;;;;;;;;6210017;28;20767;-71
2022/02/25 15:14:53;;;;;;;12.57;3.43;;;;;;;;;;6205234;28;20237;-71
2022/02/25 15:18:15;;;;;;;13.03;3.53;;;;;;;;;;6204340;28;20241;-70
2022/02/25 15:21:35;;;;;;;7.27;3.33;;;;;;;;;;6214900;28;20244;-72
2022/02/25 15:24:56;;;;;;;22.67;5.33;;;;;;;;;;6210086;28;20236;-70
2022/02/25 15:28:17;;;;;;;7.07;2.40;;;;;;;;;;6211218;28;20240;-71
2022/02/25 15:31:39;;;;;;;11.27;2.73;;;;;;;;;;6210563;28;20237;-71
2022/02/25 15:35:01;;;;;;;12.50;2.50;;;;;;;;;;6207497;28;20623;-72
2022/02/25 15:38:21;;;;;;;10.60;2.93;;;;;;;;;;6207708;28;20225;-71
2022/02/25 15:41:42;;;;;;;8.07;2.87;;;;;;;;;;6207634;28;20232;-70
2022/02/25 15:45:03;;;;;;;10.07;2.77;;;;;;;;;;6200371;28;20233;-70
2022/02/25 15:48:25;;;;;;;10.63;3.13;;;;;;;;;;6203041;28;20229;-71
2022/02/25 15:51:47;;;;;;;14.23;4.63;;;;;;;;;;6209486;28;20266;-70
2022/02/25 15:55:08;;;;;;;8.63;3.10;;;;;;;;;;6204099;28;21723;-70
2022/02/25 15:58:29;;;;;;;7.70;2.53;;;;;;;;;;6208410;28;20256;-70
2022/02/25 16:01:50;;;;;;;8.57;3.03;;;;;;;;;;6204436;28;21097;-70
2022/02/25 16:05:11;;;;;;;8.00;2.63;;;;;;;;;;6213349;28;20240;-70
2022/02/25 16:08:33;;;;;;;10.07;3.63;;;;;;;;;;6209857;28;20969;-69
2022/02/25 16:11:53;;;;;;;7.30;2.77;;;;;;;;;;6198135;28;20775;-70
2022/02/25 16:15:15;;;;;;;12.00;3.27;;;;;;;;;;6205813;28;20230;-70
2022/02/25 16:18:36;;;;;;;8.90;2.50;;;;;;;;;;6209220;28;20790;-72
2022/02/25 16:21:57;;;;;;;8.77;3.80;;;;;;;;;;6201742;28;20603;-72
2022/02/25 16:25:19;;;;;;;8.60;2.67;;;;;;;;;;6205955;28;20233;-71
2022/02/25 16:28:40;;;;;;;11.83;2.90;;;;;;;;;;6208878;28;20225;-72
2022/02/25 16:32:01;;;;;;;9.83;3.73;;;;;;;;;;6212036;28;20240;-71
2022/02/25 16:35:22;;;;;;;12.13;3.67;;;;;;;;;;6211541;28;20265;-72
2022/02/25 16:38:43;;;;;;;12.50;5.03;;;;;;;;;;6215160;28;20252;-72
2022/02/25 16:42:05;;;;;;;24.03;5.27;;;;;;;;;;6213005;28;20228;-72
2022/02/25 16:45:26;;;;;;;17.80;5.57;;;;;;;;;;6211959;28;20256;-71
2022/02/25 16:48:47;;;;;;;16.07;4.33;;;;;;;;;;6214063;28;20225;-72
2022/02/25 16:52:07;;;;;;;15.10;4.43;;;;;;;;;;6208650;28;20221;-73
2022/02/25 16:55:28;;;;;;;16.83;4.07;;;;;;;;;;6206984;28;20257;-71
2022/02/25 16:58:50;;;;;;;17.60;6.27;;;;;;;;;;6208701;28;20233;-71
2022/02/25 17:02:13;;;;;;;19.30;4.97;;;;;;;;;;6206069;28;20245;-73
2022/02/25 17:05:34;;;;;;;25.20;6.93;;;;;;;;;;6772291;22;20248;-74
2022/02/25 17:08:54;;;;;;;19.27;5.63;;;;;;;;;;6226711;28;20228;-71
2022/02/25 17:12:16;;;;;;;18.23;6.13;;;;;;;;;;6229039;28;20256;-72
2022/02/25 17:15:38;;;;;;;14.17;5.50;;;;;;;;;;6226385;28;20236;-73
2022/02/25 17:18:59;;;;;;;24.07;6.43;;;;;;;;;;6221845;28;20317;-71
2022/02/25 17:22:20;;;;;;;23.90;6.83;;;;;;;;;;6210508;28;20232;-72
2022/02/25 17:25:41;;;;;;;27.27;8.30;;;;;;;;;;6225478;28;20232;-72
2022/02/25 17:29:01;;;;;;;21.60;7.60;;;;;;;;;;6226280;28;20232;-72
2022/02/25 17:32:23;;;;;;;21.27;6.50;;;;;;;;;;6220294;28;20657;-73
2022/02/25 17:35:43;;;;;;;23.23;6.60;;;;;;;;;;6214925;28;20551;-73
2022/02/25 17:39:04;;;;;;;20.07;7.57;;;;;;;;;;6233996;28;20228;-72
2022/02/25 17:42:25;;;;;;;25.47;8.10;;;;;;;;;;6216763;28;20318;-71
2022/02/25 17:45:46;;;;;;;25.13;7.47;;;;;;;;;;6221907;28;20236;-71
2022/02/25 17:49:09;;;;;;;32.67;7.43;;;;;;;;;;6223691;28;20225;-73
2022/02/25 17:52:29;;;;;;;26.80;9.07;;;;;;;;;;6228794;28;20232;-71
2022/02/25 17:55:50;;;;;;;26.77;8.63;;;;;;;;;;6219746;28;20557;-71
2022/02/25 17:59:12;;;;;;;21.37;6.40;;;;;;;;;;6228137;28;20296;-73
2022/02/25 18:02:33;;;;;;;29.83;7.70;;;;;;;;;;6228382;28;20262;-72
2022/02/25 18:05:55;;;;;;;23.37;7.27;;;;;;;;;;6218287;28;20650;-71
2022/02/25 18:09:16;;;;;;;31.20;6.70;;;;;;;;;;6204757;28;20229;-71
2022/02/25 18:12:38;;;;;;;36.03;8.67;;;;;;;;;;6205100;28;20229;-72
2022/02/25 18:15:58;;;;;;;29.23;7.33;;;;;;;;;;6196133;28;20324;-71
2022/02/25 18:19:19;;;;;;;26.27;8.03;;;;;;;;;;6204986;28;20682;-72
2022/02/25 18:22:41;;;;;;;25.67;7.10;;;;;;;;;;6204289;28;20240;-72
2022/02/25 18:26:01;;;;;;;30.60;7.90;;;;;;;;;;6195815;28;20340;-72
2022/02/25 18:29:22;;;;;;;28.80;8.70;;;;;;;;;;6207879;28;20225;-72
2022/02/25 18:32:42;;;;;;;22.73;6.70;;;;;;;;;;6200337;28;20237;-72
2022/02/25 18:36:03;;;;;;;38.43;10.23;;;;;;;;;;6200994;28;20555;-72
2022/02/25 18:39:25;;;;;;;31.47;8.03;;;;;;;;;;6195312;28;20331;-72
2022/02/25 18:42:47;;;;;;;23.23;7.50;;;;;;;;;;6210759;28;20244;-72
2022/02/25 18:46:07;;;;;;;27.93;6.73;;;;;;;;;;6211955;28;21111;-73
2022/02/25 18:49:28;;;;;;;27.10;8.83;;;;;;;;;;6211156;28;20236;-74
2022/02/25 18:52:49;;;;;;;39.30;9.33;;;;;;;;;;6212377;28;20229;-71
2022/02/25 18:56:10;;;;;;;23.13;6.63;;;;;;;;;;6202736;28;20233;-73
2022/02/25 18:59:31;;;;;;;20.77;7.43;;;;;;;;;;6210021;28;20229;-72
2022/02/25 19:02:51;;;;;;;18.30;5.10;;;;;;;;;;6207776;28;20319;-72
2022/02/25 19:06:12;;;;;;;30.20;7.10;;;;;;;;;;6212852;28;20240;-71
2022/02/25 19:09:34;;;;;;;27.47;7.30;;;;;;;;;;6207673;28;20224;-72
2022/02/25 19:12:56;;;;;;;15.47;5.87;;;;;;;;;;6211833;28;20508;-72
2022/02/25 19:16:16;;;;;;;21.70;6.07;;;;;;;;;;6214440;28;20230;-71
2022/02/25 19:19:37;;;;;;;26.73;7.97;;;;;;;;;;6208347;28;20232;-71
2022/02/25 19:22:57;;;;;;;25.13;6.40;;;;;;;;;;6211706;28;20609;-72
2022/02/25 19:26:18;;;;;;;24.57;7.77;;;;;;;;;;6208862;28;20615;-71
2022/02/25 19:29:41;;;;;;;22.20;6.17;;;;;;;;;;6212899;28;20233;-72
2022/02/25 19:33:01;;;;;;;18.53;5.30;;;;;;;;;;6209209;28;20645;-71
2022/02/25 19:36:23;;;;;;;26.70;6.83;;;;;;;;;;6211873;28;20232;-72
2022/02/25 19:39:44;;;;;;;24.77;6.70;;;;;;;;;;6208364;28;20249;-72
2022/02/25 19:43:05;;;;;;;24.67;8.27;;;;;;;;;;6199051;28;20267;-71
2022/02/25 19:46:26;;;;;;;20.10;6.63;;;;;;;;;;6201240;28;20229;-72
2022/02/25 19:49:51;;;;;;;30.50;8.37;;;;;;;;;;6200139;28;20230;-71
2022/02/25 19:53:11;;;;;;;24.33;6.37;;;;;;;;;;6198812;28;20237;-72
2022/02/25 19:56:32;;;;;;;24.33;5.83;;;;;;;;;;6204580;28;20232;-71
2022/02/25 19:59:54;;;;;;;26.83;6.70;;;;;;;;;;6210748;28;20229;-72
2022/02/25 20:03:15;;;;;;;19.37;5.63;;;;;;;;;;6209922;28;20225;-72
2022/02/25 20:06:36;;;;;;;16.53;5.03;;;;;;;;;;6205084;28;20261;-72
2022/02/25 20:09:56;;;;;;;26.60;7.13;;;;;;;;;;6210774;28;20609;-72